Dogwood, Texas
Current Conditions -  °F | °C
As of 6:15 PM on Wednesday 28 Jan 2015 (Local Time) from KJAS Reporting Station
Clear Clear  
Wind Chill: 64°   Ceiling: Unl
Heat Index: 64°   Visibility: 10mi
Dew Point: 41°   Wind: 7mph
Humidity: 43%   Direction: 170°S
Pressure: 30.18"   Gusts: NA
Location:  30.7643°N, 94.4448°W
Report Text: KJAS 290015Z AUTO 17006KT 10SM CLR 18/05 A3018 RMK AO2 T01750049
Loading
Personal Weather Stations






























Interactive Weather Map New forecast layout! Learn more

10-Day Weather Forecast

Advertisements
Track Severe Weather on mobile